Time;durP1;ratioP1;P1;durP2;ratioP2;P2;SDS_P1;SDS_P2;PMS_P1;PMS_P2;Temp;Humidity;BMP_temperature;BMP_pressure;BME280_temperature;BME280_humidity;BME280_pressure;Samples;Min_cycle;Max_cycle;Signal;HPM_P1;HPM_P2
2022/11/09 00:02:08;;;;;;;1.20;1.20;;;;;;;;;;4939644;28;20224;-54
2022/11/09 00:04:34;;;;;;;1.60;1.60;;;;;;;;;;4954284;28;20229;-54
2022/11/09 00:07:00;;;;;;;1.20;1.20;;;;;;;;;;4930185;28;20784;-54
2022/11/09 00:09:26;;;;;;;1.30;1.30;;;;;;;;;;4944624;28;20305;-54
2022/11/09 00:11:55;;;;;;;1.53;1.53;;;;;;;;;;4945675;28;20717;-54
2022/11/09 00:14:21;;;;;;;1.40;1.40;;;;;;;;;;4938761;28;20226;-54
2022/11/09 00:16:47;;;;;;;1.63;1.63;;;;;;;;;;4955670;28;20659;-54
2022/11/09 00:19:13;;;;;;;1.50;1.50;;;;;;;;;;4958359;28;20956;-54
2022/11/09 00:21:39;;;;;;;1.40;1.40;;;;;;;;;;4959674;28;20260;-54
2022/11/09 00:24:05;;;;;;;1.23;1.23;;;;;;;;;;4964904;28;20228;-53
2022/11/09 00:26:31;;;;;;;1.47;1.47;;;;;;;;;;4958327;28;20718;-54
2022/11/09 00:28:57;;;;;;;1.10;1.10;;;;;;;;;;4958732;28;20297;-54
2022/11/09 00:31:23;;;;;;;1.60;1.60;;;;;;;;;;4956802;28;20858;-54
2022/11/09 00:33:50;;;;;;;1.67;1.60;;;;;;;;;;4969465;28;20763;-54
2022/11/09 00:36:16;;;;;;;1.50;1.50;;;;;;;;;;4972467;28;20213;-54
2022/11/09 00:38:42;;;;;;;1.40;1.40;;;;;;;;;;4961728;28;20659;-54
2022/11/09 00:41:08;;;;;;;1.50;1.50;;;;;;;;;;4951637;28;20265;-54
2022/11/09 00:43:34;;;;;;;1.40;1.40;;;;;;;;;;4965855;28;20230;-54
2022/11/09 00:46:00;;;;;;;1.30;1.30;;;;;;;;;;4961535;28;20287;-54
2022/11/09 00:48:26;;;;;;;1.60;1.60;;;;;;;;;;4966254;28;20239;-54
2022/11/09 00:50:52;;;;;;;1.40;1.40;;;;;;;;;;4968572;28;20746;-54
2022/11/09 00:53:18;;;;;;;1.50;1.50;;;;;;;;;;4958651;28;20961;-54
2022/11/09 00:55:54;;;;;;;1.40;1.40;;;;;;;;;;4952792;28;20227;-54
2022/11/09 00:58:20;;;;;;;1.47;1.47;;;;;;;;;;4947609;28;20283;-53
2022/11/09 01:00:46;;;;;;;1.40;1.40;;;;;;;;;;4944394;28;20224;-54
2022/11/09 01:03:12;;;;;;;1.63;1.63;;;;;;;;;;4905325;28;20287;-54
2022/11/09 01:05:38;;;;;;;1.50;1.50;;;;;;;;;;4939364;28;20223;-54
2022/11/09 01:08:04;;;;;;;1.40;1.40;;;;;;;;;;4950274;28;20235;-54
2022/11/09 01:10:30;;;;;;;1.50;1.50;;;;;;;;;;4945587;28;20430;-54
2022/11/09 01:12:56;;;;;;;1.40;1.40;;;;;;;;;;4950548;28;20229;-54
2022/11/09 01:15:22;;;;;;;1.50;1.50;;;;;;;;;;4948681;28;20588;-54
2022/11/09 01:17:48;;;;;;;1.40;1.40;;;;;;;;;;4950115;28;21006;-54
2022/11/09 01:20:15;;;;;;;1.50;1.50;;;;;;;;;;4948303;28;20348;-54
2022/11/09 01:22:41;;;;;;;1.33;1.33;;;;;;;;;;4964783;28;20233;-53
2022/11/09 01:25:07;;;;;;;1.63;1.60;;;;;;;;;;4947948;28;20222;-54
2022/11/09 01:27:33;;;;;;;1.50;1.50;;;;;;;;;;4967858;28;20217;-54
2022/11/09 01:29:59;;;;;;;1.50;1.50;;;;;;;;;;4952667;28;20218;-54
2022/11/09 01:32:24;;;;;;;1.37;1.37;;;;;;;;;;4966680;28;20281;-54
2022/11/09 01:34:50;;;;;;;1.30;1.30;;;;;;;;;;4961454;28;20323;-54
2022/11/09 01:37:16;;;;;;;1.37;1.37;;;;;;;;;;4962557;28;20222;-54
2022/11/09 01:39:42;;;;;;;1.40;1.40;;;;;;;;;;4965206;28;20227;-54
2022/11/09 01:42:08;;;;;;;1.50;1.50;;;;;;;;;;4957637;28;20222;-54
2022/11/09 01:44:34;;;;;;;1.50;1.50;;;;;;;;;;4957931;28;20765;-53
2022/11/09 01:47:01;;;;;;;1.60;1.60;;;;;;;;;;4960421;28;20281;-54
2022/11/09 01:49:33;;;;;;;1.47;1.47;;;;;;;;;;4929463;28;20311;-54
2022/11/09 01:52:04;;;;;;;1.50;1.50;;;;;;;;;;4961306;28;20599;-53
2022/11/09 01:54:31;;;;;;;1.60;1.60;;;;;;;;;;4942031;28;20219;-54
2022/11/09 01:56:58;;;;;;;1.57;1.57;;;;;;;;;;4949565;28;20222;-53
2022/11/09 01:59:28;;;;;;;1.50;1.50;;;;;;;;;;4940152;28;20225;-54
2022/11/09 02:01:54;;;;;;;1.50;1.50;;;;;;;;;;4943454;28;20225;-54
2022/11/09 02:04:22;;;;;;;1.40;1.40;;;;;;;;;;4935019;28;20721;-54
2022/11/09 02:06:48;;;;;;;1.50;1.50;;;;;;;;;;4936684;28;21948;-54
2022/11/09 02:09:20;;;;;;;1.40;1.40;;;;;;;;;;4921889;28;20262;-54
2022/11/09 02:11:46;;;;;;;1.50;1.50;;;;;;;;;;4941756;28;20249;-54
2022/11/09 02:14:12;;;;;;;1.50;1.50;;;;;;;;;;4938444;28;20249;-54
2022/11/09 02:16:37;;;;;;;1.67;1.63;;;;;;;;;;4951551;28;20289;-54
2022/11/09 02:19:03;;;;;;;1.40;1.40;;;;;;;;;;4945782;28;20226;-53
2022/11/09 02:21:30;;;;;;;1.40;1.40;;;;;;;;;;4943511;28;20942;-54
2022/11/09 02:23:56;;;;;;;1.70;1.70;;;;;;;;;;4945041;28;20264;-54
2022/11/09 02:26:24;;;;;;;1.60;1.60;;;;;;;;;;4914600;28;20235;-54
2022/11/09 02:28:50;;;;;;;1.60;1.60;;;;;;;;;;4937878;28;20239;-54
2022/11/09 02:31:16;;;;;;;1.60;1.60;;;;;;;;;;4913462;28;20718;-54
2022/11/09 02:33:43;;;;;;;1.83;1.73;;;;;;;;;;4919399;28;20222;-54
2022/11/09 02:36:08;;;;;;;1.47;1.47;;;;;;;;;;4937641;28;20218;-54
2022/11/09 02:38:34;;;;;;;1.60;1.60;;;;;;;;;;4957269;28;20226;-53
2022/11/09 02:41:00;;;;;;;1.40;1.40;;;;;;;;;;4935957;28;20228;-54
2022/11/09 02:43:26;;;;;;;1.40;1.40;;;;;;;;;;4931123;28;20225;-53
2022/11/09 02:45:52;;;;;;;1.50;1.50;;;;;;;;;;4936603;28;20812;-54
2022/11/09 02:48:18;;;;;;;1.50;1.50;;;;;;;;;;4941237;28;20319;-54
2022/11/09 02:50:44;;;;;;;1.60;1.60;;;;;;;;;;4954843;28;20664;-54
2022/11/09 02:53:10;;;;;;;1.40;1.40;;;;;;;;;;4933753;28;20681;-54
2022/11/09 02:55:36;;;;;;;1.57;1.57;;;;;;;;;;4959119;28;20696;-54
2022/11/09 02:58:02;;;;;;;1.40;1.40;;;;;;;;;;4962530;28;20730;-54
2022/11/09 03:00:28;;;;;;;1.50;1.50;;;;;;;;;;4948644;28;20826;-53
2022/11/09 03:02:54;;;;;;;1.50;1.50;;;;;;;;;;4966290;28;20217;-54
2022/11/09 03:05:20;;;;;;;1.60;1.60;;;;;;;;;;4965233;28;20219;-54
2022/11/09 03:07:46;;;;;;;1.40;1.40;;;;;;;;;;4951781;28;20256;-54
2022/11/09 03:10:12;;;;;;;1.50;1.50;;;;;;;;;;4952256;28;20235;-54
2022/11/09 03:12:38;;;;;;;1.60;1.60;;;;;;;;;;4943911;28;20651;-54
2022/11/09 03:15:05;;;;;;;1.50;1.50;;;;;;;;;;4943851;28;20226;-54
2022/11/09 03:17:31;;;;;;;1.50;1.50;;;;;;;;;;4955241;28;20223;-54
2022/11/09 03:19:57;;;;;;;1.50;1.50;;;;;;;;;;4942951;28;20711;-53
2022/11/09 03:22:23;;;;;;;1.50;1.50;;;;;;;;;;4951876;28;20528;-53
2022/11/09 03:24:49;;;;;;;1.50;1.50;;;;;;;;;;4960703;28;20723;-54
2022/11/09 03:27:15;;;;;;;1.60;1.60;;;;;;;;;;4945467;28;20231;-53
2022/11/09 03:29:41;;;;;;;1.50;1.50;;;;;;;;;;4961315;28;20217;-53
2022/11/09 03:32:08;;;;;;;1.60;1.60;;;;;;;;;;4942016;28;20602;-54
2022/11/09 03:34:34;;;;;;;1.43;1.43;;;;;;;;;;4950619;28;20243;-53
2022/11/09 03:37:00;;;;;;;1.53;1.53;;;;;;;;;;4939659;28;20850;-54
2022/11/09 03:39:26;;;;;;;1.60;1.60;;;;;;;;;;4950292;28;20720;-54
2022/11/09 03:41:51;;;;;;;1.30;1.30;;;;;;;;;;4934445;28;20219;-54
2022/11/09 03:44:19;;;;;;;1.40;1.40;;;;;;;;;;4942647;28;20269;-53
2022/11/09 03:46:45;;;;;;;1.60;1.60;;;;;;;;;;4945916;28;20229;-54
2022/11/09 03:49:11;;;;;;;1.40;1.40;;;;;;;;;;4951178;28;20238;-54
2022/11/09 03:51:37;;;;;;;1.43;1.43;;;;;;;;;;4939916;28;20325;-54
2022/11/09 03:54:03;;;;;;;1.30;1.30;;;;;;;;;;4947193;28;20294;-54
2022/11/09 03:56:29;;;;;;;1.40;1.40;;;;;;;;;;4946778;28;20985;-54
2022/11/09 03:58:55;;;;;;;1.33;1.33;;;;;;;;;;4947128;28;20287;-54
2022/11/09 04:01:20;;;;;;;1.40;1.40;;;;;;;;;;4949457;28;20235;-54
2022/11/09 04:03:46;;;;;;;1.30;1.30;;;;;;;;;;4943839;28;20229;-54
2022/11/09 04:06:12;;;;;;;1.50;1.50;;;;;;;;;;4933401;28;20356;-54
2022/11/09 04:08:38;;;;;;;1.40;1.40;;;;;;;;;;4946653;28;20285;-53
2022/11/09 04:11:04;;;;;;;1.50;1.50;;;;;;;;;;4937617;28;20269;-54
2022/11/09 04:13:30;;;;;;;1.50;1.50;;;;;;;;;;4923920;28;20258;-53
2022/11/09 04:15:56;;;;;;;1.50;1.50;;;;;;;;;;4946501;28;20277;-54
2022/11/09 04:18:22;;;;;;;1.53;1.53;;;;;;;;;;4949645;28;20228;-54
2022/11/09 04:20:48;;;;;;;1.30;1.30;;;;;;;;;;4948712;28;20260;-54
2022/11/09 04:23:14;;;;;;;1.43;1.43;;;;;;;;;;4963181;28;20264;-54
2022/11/09 04:25:40;;;;;;;1.37;1.37;;;;;;;;;;4950367;28;20228;-54
2022/11/09 04:28:06;;;;;;;1.50;1.50;;;;;;;;;;4932028;28;20224;-54
2022/11/09 04:30:33;;;;;;;1.57;1.57;;;;;;;;;;4937018;28;20226;-54
2022/11/09 04:32:59;;;;;;;1.60;1.60;;;;;;;;;;4954109;28;20368;-54
2022/11/09 04:35:26;;;;;;;1.50;1.50;;;;;;;;;;4943054;28;20294;-54
2022/11/09 04:37:52;;;;;;;1.50;1.50;;;;;;;;;;4941312;28;20665;-54
2022/11/09 04:40:18;;;;;;;1.30;1.30;;;;;;;;;;4952721;28;20220;-54
2022/11/09 04:42:44;;;;;;;1.40;1.40;;;;;;;;;;4960708;28;20238;-54
2022/11/09 04:45:10;;;;;;;1.50;1.50;;;;;;;;;;4942811;28;20238;-54
2022/11/09 04:47:36;;;;;;;1.40;1.40;;;;;;;;;;4963895;28;20221;-54
2022/11/09 04:50:02;;;;;;;1.40;1.40;;;;;;;;;;4957508;28;20230;-54
2022/11/09 04:52:28;;;;;;;1.30;1.30;;;;;;;;;;4951208;28;20232;-54
2022/11/09 04:54:54;;;;;;;1.60;1.60;;;;;;;;;;4931890;28;20233;-53
2022/11/09 04:57:20;;;;;;;1.40;1.40;;;;;;;;;;4952752;28;20586;-54
2022/11/09 04:59:46;;;;;;;1.60;1.60;;;;;;;;;;4967278;28;20233;-54
2022/11/09 05:02:12;;;;;;;1.50;1.50;;;;;;;;;;4911434;28;21259;-54
2022/11/09 05:04:38;;;;;;;1.30;1.30;;;;;;;;;;4937020;28;20218;-53
2022/11/09 05:07:04;;;;;;;1.40;1.40;;;;;;;;;;4950435;28;20295;-53
2022/11/09 05:09:30;;;;;;;1.40;1.40;;;;;;;;;;4950975;28;20609;-54
2022/11/09 05:11:55;;;;;;;1.30;1.30;;;;;;;;;;4948551;28;20592;-54
2022/11/09 05:14:21;;;;;;;1.50;1.50;;;;;;;;;;4941145;28;20729;-54
2022/11/09 05:16:47;;;;;;;1.40;1.40;;;;;;;;;;4952004;28;20684;-53
2022/11/09 05:19:13;;;;;;;1.33;1.33;;;;;;;;;;4936221;28;20230;-54
2022/11/09 05:21:39;;;;;;;1.30;1.30;;;;;;;;;;4944122;28;20999;-54
2022/11/09 05:24:05;;;;;;;1.60;1.60;;;;;;;;;;4948854;28;20221;-52
2022/11/09 05:26:32;;;;;;;1.30;1.30;;;;;;;;;;4965744;28;20229;-52
2022/11/09 05:28:58;;;;;;;1.40;1.40;;;;;;;;;;4952487;28;20606;-55
2022/11/09 05:31:25;;;;;;;1.70;1.60;;;;;;;;;;4937365;28;20266;-52
2022/11/09 05:33:51;;;;;;;1.60;1.50;;;;;;;;;;4943042;28;20231;-53
2022/11/09 05:36:17;;;;;;;1.40;1.40;;;;;;;;;;4949341;28;20352;-53
2022/11/09 05:38:43;;;;;;;1.47;1.47;;;;;;;;;;4941856;28;20586;-52
2022/11/09 05:41:09;;;;;;;1.20;1.20;;;;;;;;;;4934708;28;20285;-52
2022/11/09 05:43:35;;;;;;;1.50;1.50;;;;;;;;;;4956905;28;20581;-53
2022/11/09 05:46:01;;;;;;;1.40;1.40;;;;;;;;;;4945426;28;20715;-52
2022/11/09 05:48:27;;;;;;;1.30;1.30;;;;;;;;;;4930210;28;20597;-52
2022/11/09 05:50:53;;;;;;;1.50;1.50;;;;;;;;;;4944452;28;20253;-52
2022/11/09 05:53:19;;;;;;;1.40;1.40;;;;;;;;;;4954917;28;20226;-52
2022/11/09 05:55:45;;;;;;;1.10;1.10;;;;;;;;;;4927151;28;20226;-52
2022/11/09 05:58:11;;;;;;;1.40;1.40;;;;;;;;;;4945218;28;20954;-53
2022/11/09 06:00:37;;;;;;;1.57;1.57;;;;;;;;;;4926482;28;20227;-53
2022/11/09 06:03:03;;;;;;;1.30;1.30;;;;;;;;;;4934881;28;20810;-52
2022/11/09 06:05:29;;;;;;;1.50;1.50;;;;;;;;;;4949755;28;20233;-52
2022/11/09 06:07:55;;;;;;;1.40;1.40;;;;;;;;;;4955110;28;20230;-52
2022/11/09 06:10:21;;;;;;;1.30;1.30;;;;;;;;;;4918606;28;22584;-52
2022/11/09 06:12:50;;;;;;;1.40;1.40;;;;;;;;;;4964437;28;20226;-53
2022/11/09 06:15:16;;;;;;;1.30;1.30;;;;;;;;;;4956707;28;20867;-53
2022/11/09 06:17:42;;;;;;;1.30;1.30;;;;;;;;;;4972043;28;20288;-53
2022/11/09 06:20:08;;;;;;;1.40;1.40;;;;;;;;;;4954175;28;20227;-52
2022/11/09 06:22:34;;;;;;;1.40;1.40;;;;;;;;;;4962820;28;20232;-52
2022/11/09 06:25:00;;;;;;;1.40;1.40;;;;;;;;;;4955999;28;20234;-52
2022/11/09 06:27:26;;;;;;;1.40;1.40;;;;;;;;;;4936943;28;20276;-52
2022/11/09 06:29:52;;;;;;;1.60;1.60;;;;;;;;;;4963312;28;20748;-53
2022/11/09 06:32:18;;;;;;;1.10;1.10;;;;;;;;;;4957334;28;20268;-52
2022/11/09 06:34:47;;;;;;;1.30;1.30;;;;;;;;;;4947521;28;20225;-52
2022/11/09 06:37:13;;;;;;;1.50;1.50;;;;;;;;;;4942513;28;20219;-52
2022/11/09 06:39:39;;;;;;;1.40;1.40;;;;;;;;;;4936547;28;21307;-52
2022/11/09 06:42:05;;;;;;;1.50;1.50;;;;;;;;;;4951595;28;20232;-52
2022/11/09 06:44:31;;;;;;;1.30;1.30;;;;;;;;;;4953096;28;20249;-53
2022/11/09 06:46:57;;;;;;;1.40;1.40;;;;;;;;;;4969161;28;20233;-52
2022/11/09 06:49:23;;;;;;;1.40;1.40;;;;;;;;;;4954205;28;20616;-52
2022/11/09 06:51:49;;;;;;;1.30;1.30;;;;;;;;;;4955783;28;20765;-53
2022/11/09 06:54:15;;;;;;;1.40;1.40;;;;;;;;;;4967611;28;20222;-52
2022/11/09 06:56:41;;;;;;;1.33;1.33;;;;;;;;;;4950256;28;20224;-53
2022/11/09 06:59:07;;;;;;;1.40;1.40;;;;;;;;;;4951789;28;20229;-53
2022/11/09 07:01:33;;;;;;;1.47;1.47;;;;;;;;;;4973368;28;20249;-53
2022/11/09 07:03:59;;;;;;;1.30;1.30;;;;;;;;;;4973533;28;21083;-53
2022/11/09 07:06:25;;;;;;;1.40;1.40;;;;;;;;;;4963126;28;20709;-53
2022/11/09 07:08:54;;;;;;;1.40;1.40;;;;;;;;;;4968142;28;20241;-53
2022/11/09 07:11:20;;;;;;;1.10;1.10;;;;;;;;;;4963275;28;20246;-52
2022/11/09 07:13:49;;;;;;;1.30;1.30;;;;;;;;;;4957712;28;20254;-52
2022/11/09 07:16:16;;;;;;;1.30;1.30;;;;;;;;;;4965554;28;20228;-53
2022/11/09 07:18:42;;;;;;;1.20;1.20;;;;;;;;;;4958902;28;20215;-52
2022/11/09 07:21:08;;;;;;;1.37;1.37;;;;;;;;;;4958807;28;20317;-53
2022/11/09 07:23:34;;;;;;;1.20;1.20;;;;;;;;;;4954064;28;20869;-52
2022/11/09 07:26:00;;;;;;;1.33;1.33;;;;;;;;;;4973140;28;20233;-53
2022/11/09 07:28:26;;;;;;;1.20;1.20;;;;;;;;;;4953287;28;20218;-53
2022/11/09 07:30:52;;;;;;;1.30;1.30;;;;;;;;;;4958882;28;20594;-53
2022/11/09 07:33:18;;;;;;;1.20;1.20;;;;;;;;;;4972939;28;20308;-53
2022/11/09 07:35:45;;;;;;;1.20;1.20;;;;;;;;;;4954854;28;20257;-54
2022/11/09 07:38:11;;;;;;;1.30;1.30;;;;;;;;;;4965414;28;20242;-52
2022/11/09 07:40:37;;;;;;;1.37;1.37;;;;;;;;;;4965553;28;21200;-51
2022/11/09 07:43:03;;;;;;;1.40;1.40;;;;;;;;;;4942990;28;20214;-53
2022/11/09 07:45:29;;;;;;;1.27;1.27;;;;;;;;;;4972940;28;20225;-51
2022/11/09 07:47:59;;;;;;;1.20;1.20;;;;;;;;;;4962469;28;20250;-53
2022/11/09 07:50:25;;;;;;;1.20;1.20;;;;;;;;;;4955887;28;20254;-52
2022/11/09 07:52:51;;;;;;;1.20;1.20;;;;;;;;;;4960656;28;20229;-52
2022/11/09 07:55:17;;;;;;;1.20;1.20;;;;;;;;;;4959747;28;20237;-53
2022/11/09 07:57:43;;;;;;;1.27;1.27;;;;;;;;;;4977544;28;20221;-52
2022/11/09 08:00:10;;;;;;;1.20;1.20;;;;;;;;;;4972053;28;20253;-53
2022/11/09 08:02:36;;;;;;;1.10;1.10;;;;;;;;;;4978826;28;20307;-52
2022/11/09 08:05:02;;;;;;;1.33;1.33;;;;;;;;;;4974838;28;20688;-52
2022/11/09 08:07:28;;;;;;;1.30;1.30;;;;;;;;;;4975059;28;20224;-53
2022/11/09 08:09:54;;;;;;;1.30;1.30;;;;;;;;;;4970080;28;20231;-52
2022/11/09 08:12:20;;;;;;;1.20;1.20;;;;;;;;;;4971510;28;20720;-53
2022/11/09 08:14:46;;;;;;;1.20;1.20;;;;;;;;;;4977516;28;20226;-53
2022/11/09 08:17:12;;;;;;;1.40;1.40;;;;;;;;;;4974938;28;20883;-53
2022/11/09 08:19:38;;;;;;;1.30;1.30;;;;;;;;;;4976203;28;20245;-52
2022/11/09 08:22:04;;;;;;;1.20;1.20;;;;;;;;;;4965298;28;20217;-53
2022/11/09 08:24:29;;;;;;;1.20;1.20;;;;;;;;;;4974567;28;20324;-52
2022/11/09 08:26:55;;;;;;;1.40;1.40;;;;;;;;;;4959975;28;20210;-53
2022/11/09 08:29:21;;;;;;;1.50;1.50;;;;;;;;;;4972416;28;20226;-52
2022/11/09 08:31:50;;;;;;;1.27;1.27;;;;;;;;;;4974936;28;20740;-52
2022/11/09 08:34:16;;;;;;;1.20;1.20;;;;;;;;;;4964897;28;21176;-54
2022/11/09 08:36:42;;;;;;;1.40;1.40;;;;;;;;;;4977197;28;20218;-53
2022/11/09 08:39:09;;;;;;;1.20;1.20;;;;;;;;;;4980306;28;20255;-53
2022/11/09 08:41:35;;;;;;;1.33;1.33;;;;;;;;;;4973032;28;20317;-52
2022/11/09 08:44:00;;;;;;;1.20;1.20;;;;;;;;;;4966258;28;20237;-53
2022/11/09 08:46:26;;;;;;;2.23;2.13;;;;;;;;;;4980934;28;20222;-53
2022/11/09 08:48:52;;;;;;;1.90;1.80;;;;;;;;;;4975645;28;20248;-52
2022/11/09 08:51:18;;;;;;;1.90;1.80;;;;;;;;;;4967235;28;20230;-52
2022/11/09 08:53:44;;;;;;;1.73;1.70;;;;;;;;;;4961436;28;20255;-52
2022/11/09 08:56:11;;;;;;;2.00;1.90;;;;;;;;;;4967111;28;20214;-52
2022/11/09 08:58:37;;;;;;;1.60;1.60;;;;;;;;;;4967253;28;20737;-53
2022/11/09 09:01:07;;;;;;;2.27;2.17;;;;;;;;;;4966233;28;20226;-53
2022/11/09 09:03:33;;;;;;;1.10;1.10;;;;;;;;;;4970489;28;20281;-53
2022/11/09 09:06:02;;;;;;;0.60;0.60;;;;;;;;;;4977570;28;20232;-52
2022/11/09 09:08:28;;;;;;;1.00;1.00;;;;;;;;;;4957332;28;20224;-53
2022/11/09 09:10:54;;;;;;;1.07;1.07;;;;;;;;;;4965409;28;20288;-53
2022/11/09 09:13:21;;;;;;;1.10;1.10;;;;;;;;;;4977649;28;20227;-53
2022/11/09 09:15:47;;;;;;;1.10;1.10;;;;;;;;;;4943539;28;20232;-52
2022/11/09 09:18:13;;;;;;;1.10;1.10;;;;;;;;;;4960162;28;20234;-53
2022/11/09 09:20:39;;;;;;;0.90;0.90;;;;;;;;;;4968637;28;20278;-53
2022/11/09 09:23:05;;;;;;;1.60;1.60;;;;;;;;;;4978583;28;20309;-53
2022/11/09 09:25:31;;;;;;;1.20;1.20;;;;;;;;;;4977246;28;20227;-53
2022/11/09 09:27:57;;;;;;;1.30;1.30;;;;;;;;;;4966300;28;20230;-52
2022/11/09 09:30:23;;;;;;;1.17;1.17;;;;;;;;;;4962384;28;20703;-53
2022/11/09 09:32:49;;;;;;;1.40;1.40;;;;;;;;;;4980312;28;21252;-52
2022/11/09 09:35:15;;;;;;;1.50;1.50;;;;;;;;;;4973523;28;20746;-53
2022/11/09 09:37:42;;;;;;;1.60;1.60;;;;;;;;;;4971640;28;20286;-53
2022/11/09 09:40:10;;;;;;;1.80;1.70;;;;;;;;;;4971641;28;20223;-53
2022/11/09 09:42:37;;;;;;;1.90;1.80;;;;;;;;;;4955244;28;20232;-52
2022/11/09 09:45:13;;;;;;;1.90;1.80;;;;;;;;;;4968428;28;20589;-52
2022/11/09 09:47:42;;;;;;;1.60;1.60;;;;;;;;;;4979139;28;20230;-53
2022/11/09 09:50:10;;;;;;;1.60;1.60;;;;;;;;;;4979743;28;20231;-52
2022/11/09 09:52:44;;;;;;;1.60;1.60;;;;;;;;;;4953091;28;20238;-53
2022/11/09 09:55:23;;;;;;;1.60;1.60;;;;;;;;;;4948346;28;20236;-52
2022/11/09 09:57:55;;;;;;;1.67;1.67;;;;;;;;;;4951222;28;20229;-53
2022/11/09 10:00:23;;;;;;;1.90;1.80;;;;;;;;;;4973636;28;20316;-53
2022/11/09 10:02:49;;;;;;;1.50;1.50;;;;;;;;;;4967653;28;20625;-53
2022/11/09 10:05:16;;;;;;;1.60;1.60;;;;;;;;;;4967163;28;20260;-53
2022/11/09 10:08:01;;;;;;;1.57;1.57;;;;;;;;;;4952018;28;20795;-53
2022/11/09 10:10:34;;;;;;;1.90;1.80;;;;;;;;;;4974314;28;20311;-52
2022/11/09 10:13:12;;;;;;;1.90;1.80;;;;;;;;;;4949193;28;20285;-53
2022/11/09 10:15:42;;;;;;;2.00;1.90;;;;;;;;;;4964272;28;20232;-52
2022/11/09 10:18:26;;;;;;;2.10;2.00;;;;;;;;;;4965967;28;20228;-52
2022/11/09 10:21:01;;;;;;;2.20;2.10;;;;;;;;;;4963903;28;20578;-53
2022/11/09 10:23:41;;;;;;;2.00;1.90;;;;;;;;;;4957511;28;20260;-52
2022/11/09 10:26:21;;;;;;;2.23;2.13;;;;;;;;;;4966790;28;20224;-53
2022/11/09 10:28:48;;;;;;;1.60;1.60;;;;;;;;;;4949653;28;20226;-53
2022/11/09 10:31:16;;;;;;;2.00;1.90;;;;;;;;;;4946296;28;20234;-53
2022/11/09 10:33:42;;;;;;;2.00;1.90;;;;;;;;;;4971323;28;20226;-53
2022/11/09 10:36:08;;;;;;;1.67;1.67;;;;;;;;;;4965176;28;20714;-53
2022/11/09 10:38:40;;;;;;;1.90;1.80;;;;;;;;;;4960889;28;20881;-53
2022/11/09 10:41:10;;;;;;;1.80;1.70;;;;;;;;;;4947662;28;20222;-52
2022/11/09 10:43:36;;;;;;;2.00;1.90;;;;;;;;;;4947298;28;20292;-52
2022/11/09 10:46:03;;;;;;;2.00;1.90;;;;;;;;;;4975952;28;20230;-52
2022/11/09 10:48:38;;;;;;;2.00;1.90;;;;;;;;;;4960442;28;20245;-52
2022/11/09 10:51:05;;;;;;;2.20;2.10;;;;;;;;;;4960363;28;20241;-53
2022/11/09 10:53:32;;;;;;;1.50;1.50;;;;;;;;;;4954732;28;20229;-52
2022/11/09 10:55:58;;;;;;;1.63;1.63;;;;;;;;;;4971260;28;20221;-52
2022/11/09 10:58:43;;;;;;;1.15;1.15;;;;;;;;;;4962391;28;20330;-53
2022/11/09 11:01:15;;;;;;;1.40;1.40;;;;;;;;;;4986533;28;20295;-53
2022/11/09 11:03:42;;;;;;;1.20;1.20;;;;;;;;;;4974792;28;20247;-53
2022/11/09 11:06:08;;;;;;;1.15;1.15;;;;;;;;;;4972385;28;20282;-52
2022/11/09 11:08:35;;;;;;;1.10;1.10;;;;;;;;;;4967634;28;20315;-53
2022/11/09 11:11:10;;;;;;;1.10;1.10;;;;;;;;;;4970748;28;20298;-53
2022/11/09 11:13:36;;;;;;;1.10;1.10;;;;;;;;;;4954642;28;20629;-53
2022/11/09 11:16:12;;;;;;;1.08;1.08;;;;;;;;;;4978298;28;20223;-53
2022/11/09 11:18:38;;;;;;;1.10;1.10;;;;;;;;;;4956395;28;20696;-53
2022/11/09 11:21:17;;;;;;;1.30;1.30;;;;;;;;;;4948018;28;20261;-52
2022/11/09 11:23:43;;;;;;;1.10;1.10;;;;;;;;;;4967756;28;20226;-52
2022/11/09 11:26:19;;;;;;;1.00;1.00;;;;;;;;;;4975883;28;20780;-53
2022/11/09 11:28:46;;;;;;;0.90;0.90;;;;;;;;;;4976792;28;20246;-54
2022/11/09 11:31:16;;;;;;;0.60;0.60;;;;;;;;;;4948440;28;20240;-52
2022/11/09 11:33:42;;;;;;;0.70;0.70;;;;;;;;;;4970999;28;20233;-52
2022/11/09 11:36:16;;;;;;;0.80;0.80;;;;;;;;;;4967988;28;20608;-53
2022/11/09 11:38:54;;;;;;;0.70;0.70;;;;;;;;;;4946370;28;20227;-53
2022/11/09 11:41:27;;;;;;;0.70;0.70;;;;;;;;;;4955924;28;20610;-53
2022/11/09 11:44:01;;;;;;;0.80;0.80;;;;;;;;;;4944770;28;20272;-53
2022/11/09 11:46:31;;;;;;;0.70;0.70;;;;;;;;;;4967913;28;20225;-53
2022/11/09 11:49:06;;;;;;;0.80;0.80;;;;;;;;;;4944023;28;20241;-53
2022/11/09 11:51:39;;;;;;;1.27;1.27;;;;;;;;;;4967251;28;21110;-52
2022/11/09 11:54:14;;;;;;;1.30;1.30;;;;;;;;;;4962825;28;20229;-52
2022/11/09 11:56:42;;;;;;;1.10;1.10;;;;;;;;;;4974145;28;20221;-53
2022/11/09 11:59:08;;;;;;;1.10;1.10;;;;;;;;;;4968677;28;20289;-53
2022/11/09 12:01:44;;;;;;;1.10;1.10;;;;;;;;;;4958472;28;20219;-53
2022/11/09 12:04:15;;;;;;;0.90;0.90;;;;;;;;;;4945037;28;20261;-53
2022/11/09 12:07:11;;;;;;;0.70;0.70;;;;;;;;;;4966527;28;20226;-53
2022/11/09 12:09:39;;;;;;;0.70;0.70;;;;;;;;;;4959716;28;20245;-52
2022/11/09 12:12:14;;;;;;;0.80;0.80;;;;;;;;;;4928005;28;20234;-52
2022/11/09 12:15:02;;;;;;;0.80;0.80;;;;;;;;;;4960776;28;20287;-53
2022/11/09 12:17:42;;;;;;;0.80;0.80;;;;;;;;;;4955449;28;20236;-52
2022/11/09 12:20:18;;;;;;;0.70;0.70;;;;;;;;;;4946976;28;20648;-52
2022/11/09 12:22:47;;;;;;;0.90;0.90;;;;;;;;;;4944800;28;20248;-53
2022/11/09 12:25:22;;;;;;;0.95;0.95;;;;;;;;;;4958410;28;20227;-53
2022/11/09 12:27:50;;;;;;;0.93;0.93;;;;;;;;;;4965951;28;20245;-53
2022/11/09 12:30:20;;;;;;;0.80;0.80;;;;;;;;;;4952765;28;20757;-52
2022/11/09 12:32:51;;;;;;;1.20;1.20;;;;;;;;;;4938517;28;20226;-52
2022/11/09 12:35:31;;;;;;;1.10;1.10;;;;;;;;;;4923712;28;20698;-53
2022/11/09 12:38:16;;;;;;;1.30;1.30;;;;;;;;;;4942575;28;20240;-53
2022/11/09 12:40:43;;;;;;;1.10;1.10;;;;;;;;;;4954320;28;20228;-53
2022/11/09 12:43:17;;;;;;;0.80;0.80;;;;;;;;;;4968820;28;20349;-53
2022/11/09 12:45:43;;;;;;;0.80;0.80;;;;;;;;;;4952074;28;21122;-52
2022/11/09 12:48:11;;;;;;;0.70;0.70;;;;;;;;;;4920910;28;27039;-52
2022/11/09 12:50:37;;;;;;;0.80;0.80;;;;;;;;;;4925825;28;20254;-52
2022/11/09 12:53:03;;;;;;;0.80;0.80;;;;;;;;;;4941291;28;20254;-52
2022/11/09 12:55:35;;;;;;;0.90;0.90;;;;;;;;;;4939624;28;20230;-52
2022/11/09 12:58:01;;;;;;;0.90;0.90;;;;;;;;;;4946623;28;20227;-53
2022/11/09 13:00:33;;;;;;;0.70;0.70;;;;;;;;;;4948459;28;20224;-52
2022/11/09 13:03:00;;;;;;;0.70;0.70;;;;;;;;;;4936695;28;20258;-52
2022/11/09 13:05:29;;;;;;;0.83;0.83;;;;;;;;;;4939710;28;20723;-51
2022/11/09 13:07:55;;;;;;;1.30;1.30;;;;;;;;;;4945260;28;20224;-53
2022/11/09 13:10:24;;;;;;;1.20;1.20;;;;;;;;;;4943969;28;20245;-53
2022/11/09 13:12:49;;;;;;;1.20;1.20;;;;;;;;;;4951343;28;20321;-52
2022/11/09 13:15:23;;;;;;;1.30;1.30;;;;;;;;;;4955414;28;20395;-53
2022/11/09 13:18:02;;;;;;;1.30;1.30;;;;;;;;;;4934655;28;20240;-52
2022/11/09 13:20:34;;;;;;;1.10;1.10;;;;;;;;;;4967676;28;20229;-52
2022/11/09 13:23:00;;;;;;;1.30;1.30;;;;;;;;;;4950285;28;22688;-52
2022/11/09 13:25:46;;;;;;;1.23;1.23;;;;;;;;;;4942311;28;20230;-53
2022/11/09 13:28:27;;;;;;;0.70;0.70;;;;;;;;;;4944029;28;21009;-52
2022/11/09 13:30:57;;;;;;;0.97;0.97;;;;;;;;;;4939742;28;20238;-53
2022/11/09 13:33:24;;;;;;;0.90;0.90;;;;;;;;;;4940925;28;20717;-53
2022/11/09 13:35:50;;;;;;;0.90;0.90;;;;;;;;;;4942836;28;20359;-52
2022/11/09 13:38:23;;;;;;;0.90;0.90;;;;;;;;;;4949971;28;20595;-51
2022/11/09 13:40:49;;;;;;;0.80;0.80;;;;;;;;;;4938363;28;20218;-52
2022/11/09 13:43:16;;;;;;;0.80;0.80;;;;;;;;;;4943133;28;20259;-53
2022/11/09 13:45:45;;;;;;;0.80;0.80;;;;;;;;;;4966342;28;20282;-53
2022/11/09 13:48:26;;;;;;;0.70;0.70;;;;;;;;;;4938418;28;20234;-52
2022/11/09 13:50:56;;;;;;;1.00;1.00;;;;;;;;;;4968784;28;20233;-53
2022/11/09 13:53:37;;;;;;;1.00;1.00;;;;;;;;;;4948176;28;20231;-52
2022/11/09 13:56:12;;;;;;;1.10;1.10;;;;;;;;;;4954462;28;20242;-53
2022/11/09 13:58:38;;;;;;;1.10;1.10;;;;;;;;;;4944525;28;20280;-53
2022/11/09 14:01:04;;;;;;;0.87;0.87;;;;;;;;;;4950864;28;20222;-52
2022/11/09 14:03:30;;;;;;;0.70;0.70;;;;;;;;;;4968893;28;20229;-53
2022/11/09 14:06:00;;;;;;;0.90;0.90;;;;;;;;;;4962365;28;20236;-53
2022/11/09 14:08:30;;;;;;;0.90;0.90;;;;;;;;;;4962852;28;20260;-53
2022/11/09 14:11:05;;;;;;;0.70;0.70;;;;;;;;;;4946712;28;20285;-53
2022/11/09 14:13:48;;;;;;;0.60;0.60;;;;;;;;;;4936671;28;20254;-53
2022/11/09 14:16:36;;;;;;;0.60;0.60;;;;;;;;;;4944247;28;20229;-52
2022/11/09 14:19:21;;;;;;;1.00;1.00;;;;;;;;;;4948215;28;20609;-52
2022/11/09 14:21:48;;;;;;;1.20;1.20;;;;;;;;;;4915431;28;20756;-53
2022/11/09 14:24:17;;;;;;;1.17;1.17;;;;;;;;;;4930257;28;20231;-52
2022/11/09 14:27:03;;;;;;;1.30;1.30;;;;;;;;;;4925767;28;20843;-53
2022/11/09 14:29:32;;;;;;;1.43;1.43;;;;;;;;;;4936682;28;20314;-53
2022/11/09 14:32:18;;;;;;;1.23;1.23;;;;;;;;;;4934254;28;20270;-52
2022/11/09 14:34:44;;;;;;;1.40;1.40;;;;;;;;;;4934090;28;20237;-52
2022/11/09 14:37:11;;;;;;;1.30;1.30;;;;;;;;;;4914129;28;20938;-52
2022/11/09 14:39:37;;;;;;;1.30;1.30;;;;;;;;;;4918906;28;20665;-52
2022/11/09 14:42:04;;;;;;;1.00;1.00;;;;;;;;;;4932618;28;20215;-52
2022/11/09 14:44:34;;;;;;;0.80;0.80;;;;;;;;;;4955167;28;20348;-53
2022/11/09 14:47:00;;;;;;;1.10;1.10;;;;;;;;;;4928906;28;20222;-52
2022/11/09 14:49:26;;;;;;;1.10;1.10;;;;;;;;;;4922842;28;20823;-54